sensor_id;sensor_type;location;lat;lon;timestamp;temperature;humidity
25741;DHT22;13592;50.838;4.412;2023-03-01T00:01:44;3.90;90.40
25741;DHT22;13592;50.838;4.412;2023-03-01T00:04:16;3.90;90.40
25741;DHT22;13592;50.838;4.412;2023-03-01T00:06:45;3.90;90.30
25741;DHT22;13592;50.838;4.412;2023-03-01T00:09:17;3.90;90.00
25741;DHT22;13592;50.838;4.412;2023-03-01T00:11:49;3.80;89.90
25741;DHT22;13592;50.838;4.412;2023-03-01T00:14:15;3.90;90.30
25741;DHT22;13592;50.838;4.412;2023-03-01T00:16:47;3.80;90.50
25741;DHT22;13592;50.838;4.412;2023-03-01T00:19:14;3.80;90.50
25741;DHT22;13592;50.838;4.412;2023-03-01T00:21:41;3.90;90.60
25741;DHT22;13592;50.838;4.412;2023-03-01T00:24:07;3.90;90.90
25741;DHT22;13592;50.838;4.412;2023-03-01T00:26:34;3.80;90.90
25741;DHT22;13592;50.838;4.412;2023-03-01T00:29:03;3.80;90.80
25741;DHT22;13592;50.838;4.412;2023-03-01T00:31:29;3.70;90.50
25741;DHT22;13592;50.838;4.412;2023-03-01T00:33:59;3.70;90.60
25741;DHT22;13592;50.838;4.412;2023-03-01T00:36:28;3.70;90.70
25741;DHT22;13592;50.838;4.412;2023-03-01T00:41:34;3.60;90.40
25741;DHT22;13592;50.838;4.412;2023-03-01T00:44:03;3.60;90.70
25741;DHT22;13592;50.838;4.412;2023-03-01T00:46:31;3.50;90.90
25741;DHT22;13592;50.838;4.412;2023-03-01T00:48:57;3.50;90.80
25741;DHT22;13592;50.838;4.412;2023-03-01T00:51:24;3.60;91.00
25741;DHT22;13592;50.838;4.412;2023-03-01T00:53:53;3.60;90.80
25741;DHT22;13592;50.838;4.412;2023-03-01T00:58:48;3.60;90.90
25741;DHT22;13592;50.838;4.412;2023-03-01T01:01:24;3.60;91.30
25741;DHT22;13592;50.838;4.412;2023-03-01T01:06:28;3.60;90.80
25741;DHT22;13592;50.838;4.412;2023-03-01T01:08:57;3.50;90.80
25741;DHT22;13592;50.838;4.412;2023-03-01T01:11:24;3.30;91.50
25741;DHT22;13592;50.838;4.412;2023-03-01T01:13:52;3.40;91.80
25741;DHT22;13592;50.838;4.412;2023-03-01T01:16:21;3.40;91.90
25741;DHT22;13592;50.838;4.412;2023-03-01T01:18:48;3.40;91.70
25741;DHT22;13592;50.838;4.412;2023-03-01T01:21:16;3.30;91.80
25741;DHT22;13592;50.838;4.412;2023-03-01T01:23:45;3.40;91.40
25741;DHT22;13592;50.838;4.412;2023-03-01T01:28:46;3.30;91.50
25741;DHT22;13592;50.838;4.412;2023-03-01T01:33:42;3.20;91.80
25741;DHT22;13592;50.838;4.412;2023-03-01T01:36:14;3.20;92.30
25741;DHT22;13592;50.838;4.412;2023-03-01T01:38:40;3.10;92.50
25741;DHT22;13592;50.838;4.412;2023-03-01T01:41:14;3.10;92.00
25741;DHT22;13592;50.838;4.412;2023-03-01T01:43:42;3.10;92.40
25741;DHT22;13592;50.838;4.412;2023-03-01T01:49:05;3.00;92.30
25741;DHT22;13592;50.838;4.412;2023-03-01T01:51:35;3.30;92.20
25741;DHT22;13592;50.838;4.412;2023-03-01T01:54:06;3.20;92.20
25741;DHT22;13592;50.838;4.412;2023-03-01T01:59:05;3.30;92.20
25741;DHT22;13592;50.838;4.412;2023-03-01T02:01:32;3.30;91.80
25741;DHT22;13592;50.838;4.412;2023-03-01T02:04:01;3.30;91.80
25741;DHT22;13592;50.838;4.412;2023-03-01T02:06:48;3.30;91.80
25741;DHT22;13592;50.838;4.412;2023-03-01T02:09:20;3.20;91.90
25741;DHT22;13592;50.838;4.412;2023-03-01T02:11:53;3.30;92.00
25741;DHT22;13592;50.838;4.412;2023-03-01T02:14:25;3.30;91.80
25741;DHT22;13592;50.838;4.412;2023-03-01T02:16:52;3.20;91.80
25741;DHT22;13592;50.838;4.412;2023-03-01T02:19:36;3.10;92.30
25741;DHT22;13592;50.838;4.412;2023-03-01T02:22:24;3.00;92.50
25741;DHT22;13592;50.838;4.412;2023-03-01T02:29:57;3.10;92.50
25741;DHT22;13592;50.838;4.412;2023-03-01T02:34:54;3.10;92.50
25741;DHT22;13592;50.838;4.412;2023-03-01T02:37:36;3.10;92.40
25741;DHT22;13592;50.838;4.412;2023-03-01T02:42:51;3.00;92.40
25741;DHT22;13592;50.838;4.412;2023-03-01T02:45:20;2.90;92.90
25741;DHT22;13592;50.838;4.412;2023-03-01T02:47:46;2.90;92.90
25741;DHT22;13592;50.838;4.412;2023-03-01T03:00:56;2.90;92.50
25741;DHT22;13592;50.838;4.412;2023-03-01T03:05:50;2.80;92.70
25741;DHT22;13592;50.838;4.412;2023-03-01T03:08:19;2.80;92.90
25741;DHT22;13592;50.838;4.412;2023-03-01T03:10:52;2.80;93.00
25741;DHT22;13592;50.838;4.412;2023-03-01T03:15:57;2.80;93.10
25741;DHT22;13592;50.838;4.412;2023-03-01T03:18:26;2.70;93.10
25741;DHT22;13592;50.838;4.412;2023-03-01T03:20:55;2.70;93.00
25741;DHT22;13592;50.838;4.412;2023-03-01T03:23:23;2.70;92.90
25741;DHT22;13592;50.838;4.412;2023-03-01T03:25:49;2.60;93.00
25741;DHT22;13592;50.838;4.412;2023-03-01T03:28:17;2.60;93.50
25741;DHT22;13592;50.838;4.412;2023-03-01T03:30:43;2.60;93.40
25741;DHT22;13592;50.838;4.412;2023-03-01T03:33:10;2.70;94.00
25741;DHT22;13592;50.838;4.412;2023-03-01T03:35:42;2.80;93.50
25741;DHT22;13592;50.838;4.412;2023-03-01T03:38:10;2.90;93.20
25741;DHT22;13592;50.838;4.412;2023-03-01T03:40:41;2.80;93.10
25741;DHT22;13592;50.838;4.412;2023-03-01T03:43:09;2.80;93.40
25741;DHT22;13592;50.838;4.412;2023-03-01T03:45:35;2.70;93.40
25741;DHT22;13592;50.838;4.412;2023-03-01T03:48:04;2.70;93.60
25741;DHT22;13592;50.838;4.412;2023-03-01T03:50:37;2.60;94.10
25741;DHT22;13592;50.838;4.412;2023-03-01T03:53:05;2.70;94.10
25741;DHT22;13592;50.838;4.412;2023-03-01T03:55:31;2.60;94.00
25741;DHT22;13592;50.838;4.412;2023-03-01T03:57:59;2.70;93.90
25741;DHT22;13592;50.838;4.412;2023-03-01T04:00:27;2.80;93.70
25741;DHT22;13592;50.838;4.412;2023-03-01T04:02:56;2.80;93.50
25741;DHT22;13592;50.838;4.412;2023-03-01T04:05:22;2.70;93.60
25741;DHT22;13592;50.838;4.412;2023-03-01T04:07:48;2.80;93.60
25741;DHT22;13592;50.838;4.412;2023-03-01T04:10:26;2.80;93.80
25741;DHT22;13592;50.838;4.412;2023-03-01T04:15:22;2.60;93.50
25741;DHT22;13592;50.838;4.412;2023-03-01T04:17:51;2.70;93.70
25741;DHT22;13592;50.838;4.412;2023-03-01T04:20:19;2.60;93.90
25741;DHT22;13592;50.838;4.412;2023-03-01T04:22:52;2.60;93.40
25741;DHT22;13592;50.838;4.412;2023-03-01T04:25:18;2.70;93.40
25741;DHT22;13592;50.838;4.412;2023-03-01T04:27:44;2.50;93.70
25741;DHT22;13592;50.838;4.412;2023-03-01T04:30:10;2.50;94.10
25741;DHT22;13592;50.838;4.412;2023-03-01T04:32:38;2.60;94.20
25741;DHT22;13592;50.838;4.412;2023-03-01T04:35:03;2.60;93.90
25741;DHT22;13592;50.838;4.412;2023-03-01T04:37:46;2.50;93.90
25741;DHT22;13592;50.838;4.412;2023-03-01T04:42:42;2.40;94.20
25741;DHT22;13592;50.838;4.412;2023-03-01T04:45:08;2.40;94.10
25741;DHT22;13592;50.838;4.412;2023-03-01T04:47:38;2.40;94.20
25741;DHT22;13592;50.838;4.412;2023-03-01T04:52:36;2.40;94.30
25741;DHT22;13592;50.838;4.412;2023-03-01T04:55:04;2.50;94.40
25741;DHT22;13592;50.838;4.412;2023-03-01T04:57:30;2.40;94.20
25741;DHT22;13592;50.838;4.412;2023-03-01T04:59:55;2.40;94.40
25741;DHT22;13592;50.838;4.412;2023-03-01T05:04:53;2.50;94.30
25741;DHT22;13592;50.838;4.412;2023-03-01T05:07:23;2.50;94.30
25741;DHT22;13592;50.838;4.412;2023-03-01T05:09:53;2.60;94.70
25741;DHT22;13592;50.838;4.412;2023-03-01T05:12:22;2.60;94.90
25741;DHT22;13592;50.838;4.412;2023-03-01T05:14:48;2.50;94.40
25741;DHT22;13592;50.838;4.412;2023-03-01T05:19:42;2.50;94.60
25741;DHT22;13592;50.838;4.412;2023-03-01T05:22:14;2.50;94.30
25741;DHT22;13592;50.838;4.412;2023-03-01T05:24:44;2.30;94.40
25741;DHT22;13592;50.838;4.412;2023-03-01T05:27:10;2.30;94.50
25741;DHT22;13592;50.838;4.412;2023-03-01T05:29:37;2.30;94.50
25741;DHT22;13592;50.838;4.412;2023-03-01T05:32:07;2.30;95.00
25741;DHT22;13592;50.838;4.412;2023-03-01T05:34:37;2.40;95.00
25741;DHT22;13592;50.838;4.412;2023-03-01T05:37:04;2.30;94.90
25741;DHT22;13592;50.838;4.412;2023-03-01T05:39:33;2.30;94.90
25741;DHT22;13592;50.838;4.412;2023-03-01T05:44:28;2.20;94.80
25741;DHT22;13592;50.838;4.412;2023-03-01T05:46:55;2.20;94.90
25741;DHT22;13592;50.838;4.412;2023-03-01T05:49:23;2.40;94.60
25741;DHT22;13592;50.838;4.412;2023-03-01T05:54:24;2.30;94.90
25741;DHT22;13592;50.838;4.412;2023-03-01T05:56:49;2.20;94.80
25741;DHT22;13592;50.838;4.412;2023-03-01T05:59:15;2.20;95.20
25741;DHT22;13592;50.838;4.412;2023-03-01T06:01:41;2.20;95.40
25741;DHT22;13592;50.838;4.412;2023-03-01T06:04:13;2.30;95.70
25741;DHT22;13592;50.838;4.412;2023-03-01T06:06:38;2.30;95.10
25741;DHT22;13592;50.838;4.412;2023-03-01T06:11:34;2.20;95.20
25741;DHT22;13592;50.838;4.412;2023-03-01T06:14:03;2.20;95.70
25741;DHT22;13592;50.838;4.412;2023-03-01T06:16:30;2.10;95.60
25741;DHT22;13592;50.838;4.412;2023-03-01T06:18:57;2.00;95.60
25741;DHT22;13592;50.838;4.412;2023-03-01T06:21:25;2.10;96.10
25741;DHT22;13592;50.838;4.412;2023-03-01T06:23:52;2.20;95.80
25741;DHT22;13592;50.838;4.412;2023-03-01T06:26:23;2.20;95.40
25741;DHT22;13592;50.838;4.412;2023-03-01T06:31:17;2.40;95.70
25741;DHT22;13592;50.838;4.412;2023-03-01T06:33:43;2.50;95.30
25741;DHT22;13592;50.838;4.412;2023-03-01T06:36:13;2.40;95.30
25741;DHT22;13592;50.838;4.412;2023-03-01T06:38:41;2.30;95.40
25741;DHT22;13592;50.838;4.412;2023-03-01T06:41:11;2.10;95.50
25741;DHT22;13592;50.838;4.412;2023-03-01T06:43:37;2.10;95.50
25741;DHT22;13592;50.838;4.412;2023-03-01T06:46:03;2.10;95.50
25741;DHT22;13592;50.838;4.412;2023-03-01T06:48:33;2.10;95.30
25741;DHT22;13592;50.838;4.412;2023-03-01T06:51:01;2.10;95.60
25741;DHT22;13592;50.838;4.412;2023-03-01T06:53:28;2.20;95.20
25741;DHT22;13592;50.838;4.412;2023-03-01T06:55:56;2.10;95.40
25741;DHT22;13592;50.838;4.412;2023-03-01T06:58:24;2.20;95.70
25741;DHT22;13592;50.838;4.412;2023-03-01T07:00:52;2.20;95.70
25741;DHT22;13592;50.838;4.412;2023-03-01T07:03:18;2.20;95.70
25741;DHT22;13592;50.838;4.412;2023-03-01T07:05:44;2.40;95.70
25741;DHT22;13592;50.838;4.412;2023-03-01T07:08:10;2.40;95.80
25741;DHT22;13592;50.838;4.412;2023-03-01T07:10:35;2.50;95.80
25741;DHT22;13592;50.838;4.412;2023-03-01T07:13:04;2.60;95.50
25741;DHT22;13592;50.838;4.412;2023-03-01T07:15:32;2.50;95.50
25741;DHT22;13592;50.838;4.412;2023-03-01T07:17:59;2.80;95.60
25741;DHT22;13592;50.838;4.412;2023-03-01T07:20:24;2.80;95.00
25741;DHT22;13592;50.838;4.412;2023-03-01T07:22:52;2.60;95.20
25741;DHT22;13592;50.838;4.412;2023-03-01T07:25:20;2.70;95.40
25741;DHT22;13592;50.838;4.412;2023-03-01T07:27:55;2.80;95.50
25741;DHT22;13592;50.838;4.412;2023-03-01T07:30:21;2.80;95.40
25741;DHT22;13592;50.838;4.412;2023-03-01T07:32:47;2.80;95.50
25741;DHT22;13592;50.838;4.412;2023-03-01T07:35:13;3.00;95.30
25741;DHT22;13592;50.838;4.412;2023-03-01T07:37:41;3.00;95.10
25741;DHT22;13592;50.838;4.412;2023-03-01T07:40:08;3.20;95.20
25741;DHT22;13592;50.838;4.412;2023-03-01T07:42:33;3.50;95.00
25741;DHT22;13592;50.838;4.412;2023-03-01T07:45:02;3.70;94.70
25741;DHT22;13592;50.838;4.412;2023-03-01T07:47:28;4.10;94.10
25741;DHT22;13592;50.838;4.412;2023-03-01T07:49:55;4.70;93.60
25741;DHT22;13592;50.838;4.412;2023-03-01T07:52:23;5.40;92.70
25741;DHT22;13592;50.838;4.412;2023-03-01T07:54:50;6.20;91.60
25741;DHT22;13592;50.838;4.412;2023-03-01T07:57:16;7.20;90.10
25741;DHT22;13592;50.838;4.412;2023-03-01T07:59:43;8.10;86.40
25741;DHT22;13592;50.838;4.412;2023-03-01T08:02:12;8.20;84.80
25741;DHT22;13592;50.838;4.412;2023-03-01T08:04:38;7.80;84.80
25741;DHT22;13592;50.838;4.412;2023-03-01T08:07:12;7.30;86.70
25741;DHT22;13592;50.838;4.412;2023-03-01T08:09:37;7.20;86.90
25741;DHT22;13592;50.838;4.412;2023-03-01T08:12:19;7.00;86.80
25741;DHT22;13592;50.838;4.412;2023-03-01T08:14:45;6.60;86.50
25741;DHT22;13592;50.838;4.412;2023-03-01T08:17:12;6.20;88.80
25741;DHT22;13592;50.838;4.412;2023-03-01T08:19:39;5.90;89.80
25741;DHT22;13592;50.838;4.412;2023-03-01T08:22:05;5.70;89.70
25741;DHT22;13592;50.838;4.412;2023-03-01T08:24:32;5.60;90.60
25741;DHT22;13592;50.838;4.412;2023-03-01T08:27:00;5.50;90.60
25741;DHT22;13592;50.838;4.412;2023-03-01T08:29:35;5.50;90.80
25741;DHT22;13592;50.838;4.412;2023-03-01T08:32:00;5.30;91.00
25741;DHT22;13592;50.838;4.412;2023-03-01T08:34:26;5.40;90.80
25741;DHT22;13592;50.838;4.412;2023-03-01T08:36:55;5.50;91.00
25741;DHT22;13592;50.838;4.412;2023-03-01T08:39:22;5.40;91.20
25741;DHT22;13592;50.838;4.412;2023-03-01T08:41:48;5.30;91.10
25741;DHT22;13592;50.838;4.412;2023-03-01T08:44:20;5.30;91.10
25741;DHT22;13592;50.838;4.412;2023-03-01T08:46:49;5.40;91.80
25741;DHT22;13592;50.838;4.412;2023-03-01T08:49:19;5.30;91.30
25741;DHT22;13592;50.838;4.412;2023-03-01T08:51:48;5.20;91.90
25741;DHT22;13592;50.838;4.412;2023-03-01T08:54:19;5.20;92.00
25741;DHT22;13592;50.838;4.412;2023-03-01T08:56:51;5.30;91.80
25741;DHT22;13592;50.838;4.412;2023-03-01T08:59:17;5.40;92.20
25741;DHT22;13592;50.838;4.412;2023-03-01T09:01:42;5.50;91.20
25741;DHT22;13592;50.838;4.412;2023-03-01T09:04:09;5.50;91.30
25741;DHT22;13592;50.838;4.412;2023-03-01T09:06:34;5.50;91.50
25741;DHT22;13592;50.838;4.412;2023-03-01T09:09:02;5.40;92.10
25741;DHT22;13592;50.838;4.412;2023-03-01T09:11:28;5.40;92.20
25741;DHT22;13592;50.838;4.412;2023-03-01T09:13:56;5.70;92.20
25741;DHT22;13592;50.838;4.412;2023-03-01T09:16:23;5.90;91.60
25741;DHT22;13592;50.838;4.412;2023-03-01T09:18:50;6.30;90.60
25741;DHT22;13592;50.838;4.412;2023-03-01T09:21:19;6.30;90.10
25741;DHT22;13592;50.838;4.412;2023-03-01T09:23:47;6.40;90.10
25741;DHT22;13592;50.838;4.412;2023-03-01T09:26:19;6.60;90.30
25741;DHT22;13592;50.838;4.412;2023-03-01T09:28:54;7.00;90.20
25741;DHT22;13592;50.838;4.412;2023-03-01T09:31:23;8.10;88.30
25741;DHT22;13592;50.838;4.412;2023-03-01T09:33:49;9.30;85.10
25741;DHT22;13592;50.838;4.412;2023-03-01T09:36:17;11.10;81.40
25741;DHT22;13592;50.838;4.412;2023-03-01T09:38:46;13.00;75.10
25741;DHT22;13592;50.838;4.412;2023-03-01T09:43:59;17.30;62.70
25741;DHT22;13592;50.838;4.412;2023-03-01T09:46:29;18.90;59.60
25741;DHT22;13592;50.838;4.412;2023-03-01T09:49:01;20.50;53.70
25741;DHT22;13592;50.838;4.412;2023-03-01T09:51:32;21.30;51.90
25741;DHT22;13592;50.838;4.412;2023-03-01T09:54:05;21.70;49.10
25741;DHT22;13592;50.838;4.412;2023-03-01T09:56:50;21.30;48.30
25741;DHT22;13592;50.838;4.412;2023-03-01T10:02:20;19.80;49.90
25741;DHT22;13592;50.838;4.412;2023-03-01T10:04:48;19.80;49.20
25741;DHT22;13592;50.838;4.412;2023-03-01T10:09:48;21.80;47.50
25741;DHT22;13592;50.838;4.412;2023-03-01T10:12:18;22.80;45.20
25741;DHT22;13592;50.838;4.412;2023-03-01T10:17:48;22.00;45.00
25741;DHT22;13592;50.838;4.412;2023-03-01T10:22:41;21.00;46.20
25741;DHT22;13592;50.838;4.412;2023-03-01T10:25:12;20.70;45.10
25741;DHT22;13592;50.838;4.412;2023-03-01T10:27:46;19.30;46.90
25741;DHT22;13592;50.838;4.412;2023-03-01T10:32:50;18.90;48.40
25741;DHT22;13592;50.838;4.412;2023-03-01T10:35:25;19.70;46.90
25741;DHT22;13592;50.838;4.412;2023-03-01T10:43:24;22.70;43.60
25741;DHT22;13592;50.838;4.412;2023-03-01T10:45:51;23.00;43.10
25741;DHT22;13592;50.838;4.412;2023-03-01T10:48:21;22.20;42.30
25741;DHT22;13592;50.838;4.412;2023-03-01T10:53:33;21.00;44.40
25741;DHT22;13592;50.838;4.412;2023-03-01T10:56:01;21.10;45.10
25741;DHT22;13592;50.838;4.412;2023-03-01T10:58:27;21.40;44.40
25741;DHT22;13592;50.838;4.412;2023-03-01T11:00:54;21.40;43.50
25741;DHT22;13592;50.838;4.412;2023-03-01T11:03:35;21.50;43.60
25741;DHT22;13592;50.838;4.412;2023-03-01T11:06:12;21.40;44.60
25741;DHT22;13592;50.838;4.412;2023-03-01T11:11:32;20.80;43.60
25741;DHT22;13592;50.838;4.412;2023-03-01T11:14:00;20.60;44.10
25741;DHT22;13592;50.838;4.412;2023-03-01T11:16:36;20.70;43.90
25741;DHT22;13592;50.838;4.412;2023-03-01T11:24:09;20.00;43.60
25741;DHT22;13592;50.838;4.412;2023-03-01T11:26:37;19.60;44.00
25741;DHT22;13592;50.838;4.412;2023-03-01T11:29:05;19.10;44.70
25741;DHT22;13592;50.838;4.412;2023-03-01T11:31:32;18.40;45.70
25741;DHT22;13592;50.838;4.412;2023-03-01T11:34:11;17.70;46.70
25741;DHT22;13592;50.838;4.412;2023-03-01T11:36:46;17.00;47.70
25741;DHT22;13592;50.838;4.412;2023-03-01T11:41:44;15.30;51.70
25741;DHT22;13592;50.838;4.412;2023-03-01T11:44:18;14.80;52.40
25741;DHT22;13592;50.838;4.412;2023-03-01T11:51:58;12.70;55.50
25741;DHT22;13592;50.838;4.412;2023-03-01T11:57:02;12.00;57.00
25741;DHT22;13592;50.838;4.412;2023-03-01T12:17:46;10.20;61.90
25741;DHT22;13592;50.838;4.412;2023-03-01T12:20:24;10.00;62.00
25741;DHT22;13592;50.838;4.412;2023-03-01T12:22:59;9.90;62.10
25741;DHT22;13592;50.838;4.412;2023-03-01T12:25:31;10.00;62.90
25741;DHT22;13592;50.838;4.412;2023-03-01T12:28:14;9.80;63.30
25741;DHT22;13592;50.838;4.412;2023-03-01T12:44:38;9.60;64.80
25741;DHT22;13592;50.838;4.412;2023-03-01T12:49:51;9.40;64.50
25741;DHT22;13592;50.838;4.412;2023-03-01T12:54:54;9.60;64.30
25741;DHT22;13592;50.838;4.412;2023-03-01T12:57:26;9.50;64.10
25741;DHT22;13592;50.838;4.412;2023-03-01T13:02:52;9.40;63.30
25741;DHT22;13592;50.838;4.412;2023-03-01T13:05:34;9.20;64.70
25741;DHT22;13592;50.838;4.412;2023-03-01T13:08:05;9.10;65.20
25741;DHT22;13592;50.838;4.412;2023-03-01T13:15:36;9.00;65.10
25741;DHT22;13592;50.838;4.412;2023-03-01T13:18:03;9.10;65.60
25741;DHT22;13592;50.838;4.412;2023-03-01T13:23:23;9.10;67.00
25741;DHT22;13592;50.838;4.412;2023-03-01T13:26:15;9.10;66.60
25741;DHT22;13592;50.838;4.412;2023-03-01T13:28:46;9.10;66.70
25741;DHT22;13592;50.838;4.412;2023-03-01T13:33:57;9.20;65.60
25741;DHT22;13592;50.838;4.412;2023-03-01T13:39:04;9.30;65.40
25741;DHT22;13592;50.838;4.412;2023-03-01T13:46:45;9.10;65.40
25741;DHT22;13592;50.838;4.412;2023-03-01T13:49:18;9.30;65.40
25741;DHT22;13592;50.838;4.412;2023-03-01T13:51:54;9.20;65.30
25741;DHT22;13592;50.838;4.412;2023-03-01T13:56:51;9.00;66.10
25741;DHT22;13592;50.838;4.412;2023-03-01T13:59:20;9.20;65.90
25741;DHT22;13592;50.838;4.412;2023-03-01T14:01:57;9.20;64.90
25741;DHT22;13592;50.838;4.412;2023-03-01T14:04:31;9.20;65.00
25741;DHT22;13592;50.838;4.412;2023-03-01T14:09:55;9.00;64.90
25741;DHT22;13592;50.838;4.412;2023-03-01T14:18:12;8.80;66.30
25741;DHT22;13592;50.838;4.412;2023-03-01T14:20:42;8.90;65.70
25741;DHT22;13592;50.838;4.412;2023-03-01T14:23:12;8.90;65.80
25741;DHT22;13592;50.838;4.412;2023-03-01T14:25:39;8.90;65.80
25741;DHT22;13592;50.838;4.412;2023-03-01T14:30:42;8.90;67.00
25741;DHT22;13592;50.838;4.412;2023-03-01T14:33:19;8.90;67.60
25741;DHT22;13592;50.838;4.412;2023-03-01T14:35:53;8.90;66.80
25741;DHT22;13592;50.838;4.412;2023-03-01T14:38:38;9.00;67.00
25741;DHT22;13592;50.838;4.412;2023-03-01T14:41:11;9.10;66.70
25741;DHT22;13592;50.838;4.412;2023-03-01T14:43:41;9.00;67.30
25741;DHT22;13592;50.838;4.412;2023-03-01T14:46:24;8.80;67.70
25741;DHT22;13592;50.838;4.412;2023-03-01T14:51:21;8.90;68.80
25741;DHT22;13592;50.838;4.412;2023-03-01T14:53:47;8.90;68.30
25741;DHT22;13592;50.838;4.412;2023-03-01T14:56:14;9.10;66.90
25741;DHT22;13592;50.838;4.412;2023-03-01T14:58:39;9.00;67.70
25741;DHT22;13592;50.838;4.412;2023-03-01T15:01:05;8.90;67.60
25741;DHT22;13592;50.838;4.412;2023-03-01T15:06:08;9.00;67.60
25741;DHT22;13592;50.838;4.412;2023-03-01T15:08:34;8.90;67.90
25741;DHT22;13592;50.838;4.412;2023-03-01T15:13:41;8.90;66.60
25741;DHT22;13592;50.838;4.412;2023-03-01T15:16:13;8.80;67.80
25741;DHT22;13592;50.838;4.412;2023-03-01T15:18:54;8.70;68.30
25741;DHT22;13592;50.838;4.412;2023-03-01T15:21:26;8.60;69.10
25741;DHT22;13592;50.838;4.412;2023-03-01T15:24:06;8.50;69.00
25741;DHT22;13592;50.838;4.412;2023-03-01T15:26:40;8.60;69.70
25741;DHT22;13592;50.838;4.412;2023-03-01T15:29:10;8.60;68.70
25741;DHT22;13592;50.838;4.412;2023-03-01T15:32:01;8.70;69.50
25741;DHT22;13592;50.838;4.412;2023-03-01T15:39:35;8.50;71.30
25741;DHT22;13592;50.838;4.412;2023-03-01T15:42:07;8.60;70.10
25741;DHT22;13592;50.838;4.412;2023-03-01T15:44:36;8.40;71.70
25741;DHT22;13592;50.838;4.412;2023-03-01T15:47:08;8.50;70.00
25741;DHT22;13592;50.838;4.412;2023-03-01T15:49:46;8.50;69.10
25741;DHT22;13592;50.838;4.412;2023-03-01T15:52:34;8.40;71.80
25741;DHT22;13592;50.838;4.412;2023-03-01T15:55:04;8.20;72.30
25741;DHT22;13592;50.838;4.412;2023-03-01T15:57:33;8.20;71.70
25741;DHT22;13592;50.838;4.412;2023-03-01T15:59:59;8.20;71.00
25741;DHT22;13592;50.838;4.412;2023-03-01T16:02:28;8.20;70.30
25741;DHT22;13592;50.838;4.412;2023-03-01T16:04:54;8.10;71.90
25741;DHT22;13592;50.838;4.412;2023-03-01T16:07:22;8.10;73.40
25741;DHT22;13592;50.838;4.412;2023-03-01T16:09:48;8.10;72.70
25741;DHT22;13592;50.838;4.412;2023-03-01T16:12:13;7.90;73.60
25741;DHT22;13592;50.838;4.412;2023-03-01T16:14:39;7.90;74.50
25741;DHT22;13592;50.838;4.412;2023-03-01T16:17:05;7.90;74.90
25741;DHT22;13592;50.838;4.412;2023-03-01T16:19:30;7.80;74.20
25741;DHT22;13592;50.838;4.412;2023-03-01T16:21:57;8.00;73.10
25741;DHT22;13592;50.838;4.412;2023-03-01T16:24:29;7.90;75.30
25741;DHT22;13592;50.838;4.412;2023-03-01T16:26:55;7.80;72.40
25741;DHT22;13592;50.838;4.412;2023-03-01T16:29:21;7.70;73.60
25741;DHT22;13592;50.838;4.412;2023-03-01T16:31:46;7.80;76.00
25741;DHT22;13592;50.838;4.412;2023-03-01T16:34:14;7.70;74.70
25741;DHT22;13592;50.838;4.412;2023-03-01T16:36:39;7.80;72.20
25741;DHT22;13592;50.838;4.412;2023-03-01T16:39:09;7.80;74.80
25741;DHT22;13592;50.838;4.412;2023-03-01T16:41:38;7.70;72.70
25741;DHT22;13592;50.838;4.412;2023-03-01T16:44:03;7.50;75.50
25741;DHT22;13592;50.838;4.412;2023-03-01T16:46:31;7.70;76.50
25741;DHT22;13592;50.838;4.412;2023-03-01T16:49:05;7.60;76.20
25741;DHT22;13592;50.838;4.412;2023-03-01T16:51:31;7.50;76.60
25741;DHT22;13592;50.838;4.412;2023-03-01T16:54:02;7.40;76.80
25741;DHT22;13592;50.838;4.412;2023-03-01T16:56:29;7.40;76.00
25741;DHT22;13592;50.838;4.412;2023-03-01T16:58:57;7.40;76.90
25741;DHT22;13592;50.838;4.412;2023-03-01T17:01:23;7.80;73.30
25741;DHT22;13592;50.838;4.412;2023-03-01T17:06:19;7.60;75.30
25741;DHT22;13592;50.838;4.412;2023-03-01T17:08:46;7.50;76.80
25741;DHT22;13592;50.838;4.412;2023-03-01T17:13:41;7.60;77.30
25741;DHT22;13592;50.838;4.412;2023-03-01T17:16:11;7.60;77.70
25741;DHT22;13592;50.838;4.412;2023-03-01T17:18:38;7.50;76.70
25741;DHT22;13592;50.838;4.412;2023-03-01T17:21:05;7.50;77.60
25741;DHT22;13592;50.838;4.412;2023-03-01T17:23:32;7.30;77.20
25741;DHT22;13592;50.838;4.412;2023-03-01T17:26:02;7.20;78.30
25741;DHT22;13592;50.838;4.412;2023-03-01T17:28:29;7.20;78.30
25741;DHT22;13592;50.838;4.412;2023-03-01T17:30:55;7.10;79.10
25741;DHT22;13592;50.838;4.412;2023-03-01T17:33:23;7.20;79.40
25741;DHT22;13592;50.838;4.412;2023-03-01T17:35:49;7.00;79.10
25741;DHT22;13592;50.838;4.412;2023-03-01T17:38:18;7.00;79.10
25741;DHT22;13592;50.838;4.412;2023-03-01T17:43:13;7.00;80.50
25741;DHT22;13592;50.838;4.412;2023-03-01T17:45:38;7.00;81.20
25741;DHT22;13592;50.838;4.412;2023-03-01T17:48:05;7.20;80.70
25741;DHT22;13592;50.838;4.412;2023-03-01T17:50:31;7.20;80.80
25741;DHT22;13592;50.838;4.412;2023-03-01T17:52:56;7.20;80.20
25741;DHT22;13592;50.838;4.412;2023-03-01T17:55:22;7.10;79.50
25741;DHT22;13592;50.838;4.412;2023-03-01T17:57:48;7.10;80.50
25741;DHT22;13592;50.838;4.412;2023-03-01T18:00:14;7.00;81.20
25741;DHT22;13592;50.838;4.412;2023-03-01T18:02:41;6.90;82.00
25741;DHT22;13592;50.838;4.412;2023-03-01T18:05:06;6.80;81.70
25741;DHT22;13592;50.838;4.412;2023-03-01T18:07:34;6.80;81.70
25741;DHT22;13592;50.838;4.412;2023-03-01T18:09:59;6.80;81.80
25741;DHT22;13592;50.838;4.412;2023-03-01T18:12:25;6.70;82.30
25741;DHT22;13592;50.838;4.412;2023-03-01T18:14:51;6.70;82.60
25741;DHT22;13592;50.838;4.412;2023-03-01T18:19:51;6.70;82.10
25741;DHT22;13592;50.838;4.412;2023-03-01T18:22:19;6.90;81.20
25741;DHT22;13592;50.838;4.412;2023-03-01T18:24:45;6.80;81.70
25741;DHT22;13592;50.838;4.412;2023-03-01T18:27:10;6.70;81.50
25741;DHT22;13592;50.838;4.412;2023-03-01T18:29:42;6.60;81.90
25741;DHT22;13592;50.838;4.412;2023-03-01T18:32:10;6.70;82.10
25741;DHT22;13592;50.838;4.412;2023-03-01T18:34:36;6.70;81.90
25741;DHT22;13592;50.838;4.412;2023-03-01T18:37:01;6.60;82.50
25741;DHT22;13592;50.838;4.412;2023-03-01T18:39:27;6.50;83.30
25741;DHT22;13592;50.838;4.412;2023-03-01T18:41:53;6.50;83.00
25741;DHT22;13592;50.838;4.412;2023-03-01T18:44:19;6.50;83.00
25741;DHT22;13592;50.838;4.412;2023-03-01T18:46:46;6.40;82.60
25741;DHT22;13592;50.838;4.412;2023-03-01T18:49:14;6.40;83.20
25741;DHT22;13592;50.838;4.412;2023-03-01T18:51:40;6.40;83.10
25741;DHT22;13592;50.838;4.412;2023-03-01T18:54:06;6.30;82.50
25741;DHT22;13592;50.838;4.412;2023-03-01T18:56:33;6.30;83.50
25741;DHT22;13592;50.838;4.412;2023-03-01T18:59:00;6.20;83.90
25741;DHT22;13592;50.838;4.412;2023-03-01T19:01:27;6.30;83.50
25741;DHT22;13592;50.838;4.412;2023-03-01T19:03:53;6.30;83.70
25741;DHT22;13592;50.838;4.412;2023-03-01T19:06:20;6.30;84.10
25741;DHT22;13592;50.838;4.412;2023-03-01T19:08:47;6.20;83.80
25741;DHT22;13592;50.838;4.412;2023-03-01T19:11:15;6.20;83.80
25741;DHT22;13592;50.838;4.412;2023-03-01T19:13:42;6.20;84.00
25741;DHT22;13592;50.838;4.412;2023-03-01T19:16:14;6.10;83.70
25741;DHT22;13592;50.838;4.412;2023-03-01T19:18:40;6.10;84.20
25741;DHT22;13592;50.838;4.412;2023-03-01T19:21:09;6.10;84.10